sensor_id;sensor_type;location;lat;lon;timestamp;temperature;humidity
18444;DHT22;9350;53.176;8.194;2023-04-24T00:01:55;13.70;99.90
18444;DHT22;9350;53.176;8.194;2023-04-24T00:04:23;13.70;99.90
18444;DHT22;9350;53.176;8.194;2023-04-24T00:06:51;13.70;99.90
18444;DHT22;9350;53.176;8.194;2023-04-24T00:09:19;13.70;99.90
18444;DHT22;9350;53.176;8.194;2023-04-24T00:11:47;13.70;99.90
18444;DHT22;9350;53.176;8.194;2023-04-24T00:14:14;13.70;99.90
18444;DHT22;9350;53.176;8.194;2023-04-24T00:16:41;13.60;99.90
18444;DHT22;9350;53.176;8.194;2023-04-24T00:19:08;13.60;99.90
18444;DHT22;9350;53.176;8.194;2023-04-24T00:21:34;13.50;99.90
18444;DHT22;9350;53.176;8.194;2023-04-24T00:24:01;13.60;99.90
18444;DHT22;9350;53.176;8.194;2023-04-24T00:26:28;13.50;99.90
18444;DHT22;9350;53.176;8.194;2023-04-24T00:28:56;13.40;99.90
18444;DHT22;9350;53.176;8.194;2023-04-24T00:31:23;13.30;99.90
18444;DHT22;9350;53.176;8.194;2023-04-24T00:33:49;13.40;99.90
18444;DHT22;9350;53.176;8.194;2023-04-24T00:36:16;13.20;99.90
18444;DHT22;9350;53.176;8.194;2023-04-24T00:38:45;13.10;99.90
18444;DHT22;9350;53.176;8.194;2023-04-24T00:41:11;13.20;99.90
18444;DHT22;9350;53.176;8.194;2023-04-24T00:43:39;13.00;99.90
18444;DHT22;9350;53.176;8.194;2023-04-24T00:46:07;13.10;99.90
18444;DHT22;9350;53.176;8.194;2023-04-24T00:48:34;13.00;99.90
18444;DHT22;9350;53.176;8.194;2023-04-24T00:51:01;13.00;99.90
18444;DHT22;9350;53.176;8.194;2023-04-24T00:53:28;12.90;99.90
18444;DHT22;9350;53.176;8.194;2023-04-24T00:55:55;13.00;99.90
18444;DHT22;9350;53.176;8.194;2023-04-24T00:58:22;12.90;99.90
18444;DHT22;9350;53.176;8.194;2023-04-24T01:00:50;12.80;99.90
18444;DHT22;9350;53.176;8.194;2023-04-24T01:03:21;12.80;99.90
18444;DHT22;9350;53.176;8.194;2023-04-24T01:05:49;12.80;99.90
18444;DHT22;9350;53.176;8.194;2023-04-24T01:08:16;12.80;99.90
18444;DHT22;9350;53.176;8.194;2023-04-24T01:10:43;12.70;99.90
18444;DHT22;9350;53.176;8.194;2023-04-24T01:13:11;12.80;99.90
18444;DHT22;9350;53.176;8.194;2023-04-24T01:15:38;12.80;99.90
18444;DHT22;9350;53.176;8.194;2023-04-24T01:18:05;12.80;99.90
18444;DHT22;9350;53.176;8.194;2023-04-24T01:20:34;12.80;99.90
18444;DHT22;9350;53.176;8.194;2023-04-24T01:23:03;12.80;99.90
18444;DHT22;9350;53.176;8.194;2023-04-24T01:25:30;12.80;99.90
18444;DHT22;9350;53.176;8.194;2023-04-24T01:27:57;12.80;99.90
18444;DHT22;9350;53.176;8.194;2023-04-24T01:30:24;12.90;99.90
18444;DHT22;9350;53.176;8.194;2023-04-24T01:32:52;12.80;99.90
18444;DHT22;9350;53.176;8.194;2023-04-24T01:35:20;12.80;99.90
18444;DHT22;9350;53.176;8.194;2023-04-24T01:37:47;12.90;99.90
18444;DHT22;9350;53.176;8.194;2023-04-24T01:40:15;12.80;99.90
18444;DHT22;9350;53.176;8.194;2023-04-24T01:42:42;12.70;99.90
18444;DHT22;9350;53.176;8.194;2023-04-24T01:45:11;12.80;99.90
18444;DHT22;9350;53.176;8.194;2023-04-24T01:47:39;12.70;99.90
18444;DHT22;9350;53.176;8.194;2023-04-24T01:50:06;12.70;99.90
18444;DHT22;9350;53.176;8.194;2023-04-24T01:52:33;12.70;99.90
18444;DHT22;9350;53.176;8.194;2023-04-24T01:55:02;12.70;99.90
18444;DHT22;9350;53.176;8.194;2023-04-24T01:57:30;12.70;99.90
18444;DHT22;9350;53.176;8.194;2023-04-24T01:59:57;12.60;99.90
18444;DHT22;9350;53.176;8.194;2023-04-24T02:02:24;12.60;99.90
18444;DHT22;9350;53.176;8.194;2023-04-24T02:04:52;12.60;99.90
18444;DHT22;9350;53.176;8.194;2023-04-24T02:07:19;12.70;99.90
18444;DHT22;9350;53.176;8.194;2023-04-24T02:09:46;12.70;99.90
18444;DHT22;9350;53.176;8.194;2023-04-24T02:12:13;12.60;99.90
18444;DHT22;9350;53.176;8.194;2023-04-24T02:14:41;12.50;99.90
18444;DHT22;9350;53.176;8.194;2023-04-24T02:17:09;12.50;99.90
18444;DHT22;9350;53.176;8.194;2023-04-24T02:19:38;12.50;99.90
18444;DHT22;9350;53.176;8.194;2023-04-24T02:22:05;12.50;99.90
18444;DHT22;9350;53.176;8.194;2023-04-24T02:24:32;12.50;99.90
18444;DHT22;9350;53.176;8.194;2023-04-24T02:26:59;12.50;99.90
18444;DHT22;9350;53.176;8.194;2023-04-24T02:29:27;12.60;99.90
18444;DHT22;9350;53.176;8.194;2023-04-24T02:31:55;12.50;99.90
18444;DHT22;9350;53.176;8.194;2023-04-24T02:34:22;12.60;99.90
18444;DHT22;9350;53.176;8.194;2023-04-24T02:36:50;12.60;99.90
18444;DHT22;9350;53.176;8.194;2023-04-24T02:39:16;12.60;99.90
18444;DHT22;9350;53.176;8.194;2023-04-24T02:41:44;12.70;99.90
18444;DHT22;9350;53.176;8.194;2023-04-24T02:44:10;12.60;99.90
18444;DHT22;9350;53.176;8.194;2023-04-24T02:46:37;12.60;99.90
18444;DHT22;9350;53.176;8.194;2023-04-24T02:49:05;12.60;99.90
18444;DHT22;9350;53.176;8.194;2023-04-24T02:51:32;12.50;99.90
18444;DHT22;9350;53.176;8.194;2023-04-24T02:53:59;12.50;99.90
18444;DHT22;9350;53.176;8.194;2023-04-24T02:56:25;12.60;99.90
18444;DHT22;9350;53.176;8.194;2023-04-24T02:58:52;12.50;99.90
18444;DHT22;9350;53.176;8.194;2023-04-24T03:01:19;12.50;99.90
18444;DHT22;9350;53.176;8.194;2023-04-24T03:03:46;12.30;99.90
18444;DHT22;9350;53.176;8.194;2023-04-24T03:06:14;12.40;99.90
18444;DHT22;9350;53.176;8.194;2023-04-24T03:08:40;12.40;99.90
18444;DHT22;9350;53.176;8.194;2023-04-24T03:11:07;12.50;99.90
18444;DHT22;9350;53.176;8.194;2023-04-24T03:13:34;12.40;99.90
18444;DHT22;9350;53.176;8.194;2023-04-24T03:16:01;12.40;99.90
18444;DHT22;9350;53.176;8.194;2023-04-24T03:18:27;12.50;99.90
18444;DHT22;9350;53.176;8.194;2023-04-24T03:20:54;12.50;99.90
18444;DHT22;9350;53.176;8.194;2023-04-24T03:23:22;12.50;99.90
18444;DHT22;9350;53.176;8.194;2023-04-24T03:25:49;12.50;99.90
18444;DHT22;9350;53.176;8.194;2023-04-24T03:28:16;12.50;99.90
18444;DHT22;9350;53.176;8.194;2023-04-24T03:30:43;12.40;99.90
18444;DHT22;9350;53.176;8.194;2023-04-24T03:33:10;12.40;99.90
18444;DHT22;9350;53.176;8.194;2023-04-24T03:35:36;12.40;99.90
18444;DHT22;9350;53.176;8.194;2023-04-24T03:38:03;12.40;99.90
18444;DHT22;9350;53.176;8.194;2023-04-24T03:40:32;12.40;99.90
18444;DHT22;9350;53.176;8.194;2023-04-24T03:42:59;12.40;99.90
18444;DHT22;9350;53.176;8.194;2023-04-24T03:45:26;12.40;99.90
18444;DHT22;9350;53.176;8.194;2023-04-24T03:47:52;12.40;99.90
18444;DHT22;9350;53.176;8.194;2023-04-24T03:50:19;12.40;99.90
18444;DHT22;9350;53.176;8.194;2023-04-24T03:52:46;12.30;99.90
18444;DHT22;9350;53.176;8.194;2023-04-24T03:55:13;12.30;99.90
18444;DHT22;9350;53.176;8.194;2023-04-24T03:57:41;12.30;99.90
18444;DHT22;9350;53.176;8.194;2023-04-24T04:00:09;12.30;99.90
18444;DHT22;9350;53.176;8.194;2023-04-24T04:02:36;12.30;99.90
18444;DHT22;9350;53.176;8.194;2023-04-24T04:05:03;12.40;99.90
18444;DHT22;9350;53.176;8.194;2023-04-24T04:07:30;12.40;99.90
18444;DHT22;9350;53.176;8.194;2023-04-24T04:09:57;12.40;99.90
18444;DHT22;9350;53.176;8.194;2023-04-24T04:12:23;12.30;99.90
18444;DHT22;9350;53.176;8.194;2023-04-24T04:14:52;12.30;99.90
18444;DHT22;9350;53.176;8.194;2023-04-24T04:17:18;12.40;99.90
18444;DHT22;9350;53.176;8.194;2023-04-24T04:19:45;12.30;99.90
18444;DHT22;9350;53.176;8.194;2023-04-24T04:22:12;12.30;99.90
18444;DHT22;9350;53.176;8.194;2023-04-24T04:24:38;12.30;99.90
18444;DHT22;9350;53.176;8.194;2023-04-24T04:27:06;12.20;99.90
18444;DHT22;9350;53.176;8.194;2023-04-24T04:29:33;12.30;99.90
18444;DHT22;9350;53.176;8.194;2023-04-24T04:32:01;12.30;99.90
18444;DHT22;9350;53.176;8.194;2023-04-24T04:34:28;12.30;99.90
18444;DHT22;9350;53.176;8.194;2023-04-24T04:36:57;12.40;99.90
18444;DHT22;9350;53.176;8.194;2023-04-24T04:39:24;12.20;99.90
18444;DHT22;9350;53.176;8.194;2023-04-24T04:41:51;12.40;99.90
18444;DHT22;9350;53.176;8.194;2023-04-24T04:44:18;12.30;99.90
18444;DHT22;9350;53.176;8.194;2023-04-24T04:46:45;12.30;99.90
18444;DHT22;9350;53.176;8.194;2023-04-24T04:49:14;12.30;99.90
18444;DHT22;9350;53.176;8.194;2023-04-24T04:51:42;12.40;99.90
18444;DHT22;9350;53.176;8.194;2023-04-24T04:54:08;12.30;99.90
18444;DHT22;9350;53.176;8.194;2023-04-24T04:56:35;12.20;99.90
18444;DHT22;9350;53.176;8.194;2023-04-24T04:59:02;12.20;99.90
18444;DHT22;9350;53.176;8.194;2023-04-24T05:01:28;12.30;99.90
18444;DHT22;9350;53.176;8.194;2023-04-24T05:03:55;12.20;99.90
18444;DHT22;9350;53.176;8.194;2023-04-24T05:06:23;12.10;99.90
18444;DHT22;9350;53.176;8.194;2023-04-24T05:08:51;12.20;99.90
18444;DHT22;9350;53.176;8.194;2023-04-24T05:11:22;12.20;99.90
18444;DHT22;9350;53.176;8.194;2023-04-24T05:13:49;12.20;99.90
18444;DHT22;9350;53.176;8.194;2023-04-24T05:16:15;12.20;99.90
18444;DHT22;9350;53.176;8.194;2023-04-24T05:18:42;12.20;99.90
18444;DHT22;9350;53.176;8.194;2023-04-24T05:21:09;12.20;99.90
18444;DHT22;9350;53.176;8.194;2023-04-24T05:23:37;12.20;99.90
18444;DHT22;9350;53.176;8.194;2023-04-24T05:26:04;12.30;99.90
18444;DHT22;9350;53.176;8.194;2023-04-24T05:28:31;12.30;99.90
18444;DHT22;9350;53.176;8.194;2023-04-24T05:30:58;12.30;99.90
18444;DHT22;9350;53.176;8.194;2023-04-24T05:33:26;12.30;99.90
18444;DHT22;9350;53.176;8.194;2023-04-24T05:35:53;12.30;99.90
18444;DHT22;9350;53.176;8.194;2023-04-24T05:38:19;12.30;99.90
18444;DHT22;9350;53.176;8.194;2023-04-24T05:40:47;12.30;99.90
18444;DHT22;9350;53.176;8.194;2023-04-24T05:43:14;12.10;99.90
18444;DHT22;9350;53.176;8.194;2023-04-24T05:45:41;12.00;99.90
18444;DHT22;9350;53.176;8.194;2023-04-24T05:48:08;12.10;99.90
18444;DHT22;9350;53.176;8.194;2023-04-24T05:50:35;12.10;99.90
18444;DHT22;9350;53.176;8.194;2023-04-24T05:53:02;12.20;99.90
18444;DHT22;9350;53.176;8.194;2023-04-24T05:55:29;12.20;99.90
18444;DHT22;9350;53.176;8.194;2023-04-24T05:57:58;12.20;99.90
18444;DHT22;9350;53.176;8.194;2023-04-24T06:00:25;12.20;99.90
18444;DHT22;9350;53.176;8.194;2023-04-24T06:02:52;12.20;99.90
18444;DHT22;9350;53.176;8.194;2023-04-24T06:05:19;12.20;99.90
18444;DHT22;9350;53.176;8.194;2023-04-24T06:07:46;12.20;99.90
18444;DHT22;9350;53.176;8.194;2023-04-24T06:10:13;12.20;99.90
18444;DHT22;9350;53.176;8.194;2023-04-24T06:12:40;12.10;99.90
18444;DHT22;9350;53.176;8.194;2023-04-24T06:15:09;12.20;99.90
18444;DHT22;9350;53.176;8.194;2023-04-24T06:17:37;12.20;99.90
18444;DHT22;9350;53.176;8.194;2023-04-24T06:20:04;12.20;99.90
18444;DHT22;9350;53.176;8.194;2023-04-24T06:22:32;12.10;99.90
18444;DHT22;9350;53.176;8.194;2023-04-24T06:24:59;12.30;99.90
18444;DHT22;9350;53.176;8.194;2023-04-24T06:27:26;12.30;99.90
18444;DHT22;9350;53.176;8.194;2023-04-24T06:29:53;12.20;99.90
18444;DHT22;9350;53.176;8.194;2023-04-24T06:32:22;12.20;99.90
18444;DHT22;9350;53.176;8.194;2023-04-24T06:34:50;12.20;99.90
18444;DHT22;9350;53.176;8.194;2023-04-24T06:37:17;12.10;99.90
18444;DHT22;9350;53.176;8.194;2023-04-24T06:39:44;12.10;99.90
18444;DHT22;9350;53.176;8.194;2023-04-24T06:42:11;12.20;99.90
18444;DHT22;9350;53.176;8.194;2023-04-24T06:44:38;12.20;99.90
18444;DHT22;9350;53.176;8.194;2023-04-24T06:47:07;12.20;99.90
18444;DHT22;9350;53.176;8.194;2023-04-24T06:49:36;12.10;99.90
18444;DHT22;9350;53.176;8.194;2023-04-24T06:52:03;12.20;99.90
18444;DHT22;9350;53.176;8.194;2023-04-24T06:54:30;12.20;99.90
18444;DHT22;9350;53.176;8.194;2023-04-24T06:56:57;12.30;99.90
18444;DHT22;9350;53.176;8.194;2023-04-24T06:59:24;12.40;99.90
18444;DHT22;9350;53.176;8.194;2023-04-24T07:01:51;12.30;99.90
18444;DHT22;9350;53.176;8.194;2023-04-24T07:04:17;12.20;99.90
18444;DHT22;9350;53.176;8.194;2023-04-24T07:06:48;12.30;99.90
18444;DHT22;9350;53.176;8.194;2023-04-24T07:09:16;12.30;99.90
18444;DHT22;9350;53.176;8.194;2023-04-24T07:11:43;12.40;99.90
18444;DHT22;9350;53.176;8.194;2023-04-24T07:14:10;12.40;99.90
18444;DHT22;9350;53.176;8.194;2023-04-24T07:16:37;12.40;99.90
18444;DHT22;9350;53.176;8.194;2023-04-24T07:19:04;12.50;99.90
18444;DHT22;9350;53.176;8.194;2023-04-24T07:21:31;12.40;99.90
18444;DHT22;9350;53.176;8.194;2023-04-24T07:23:59;12.40;99.90
18444;DHT22;9350;53.176;8.194;2023-04-24T07:26:26;12.40;99.90
18444;DHT22;9350;53.176;8.194;2023-04-24T07:28:53;12.40;99.90
18444;DHT22;9350;53.176;8.194;2023-04-24T07:31:20;12.30;99.90
18444;DHT22;9350;53.176;8.194;2023-04-24T07:33:47;12.40;99.90
18444;DHT22;9350;53.176;8.194;2023-04-24T07:36:14;12.40;99.90
18444;DHT22;9350;53.176;8.194;2023-04-24T07:38:44;12.30;99.90
18444;DHT22;9350;53.176;8.194;2023-04-24T07:41:12;12.30;99.90
18444;DHT22;9350;53.176;8.194;2023-04-24T07:43:39;12.30;99.90
18444;DHT22;9350;53.176;8.194;2023-04-24T07:46:06;12.40;99.90
18444;DHT22;9350;53.176;8.194;2023-04-24T07:48:33;12.30;99.90
18444;DHT22;9350;53.176;8.194;2023-04-24T07:50:59;12.40;99.90
18444;DHT22;9350;53.176;8.194;2023-04-24T07:53:26;12.40;99.90
18444;DHT22;9350;53.176;8.194;2023-04-24T07:55:54;12.40;99.90
18444;DHT22;9350;53.176;8.194;2023-04-24T07:58:22;12.40;99.90
18444;DHT22;9350;53.176;8.194;2023-04-24T08:00:50;12.50;99.90
18444;DHT22;9350;53.176;8.194;2023-04-24T08:03:17;12.50;99.90
18444;DHT22;9350;53.176;8.194;2023-04-24T08:05:45;12.40;99.90
18444;DHT22;9350;53.176;8.194;2023-04-24T08:08:12;12.40;99.90
18444;DHT22;9350;53.176;8.194;2023-04-24T08:10:40;12.50;99.90
18444;DHT22;9350;53.176;8.194;2023-04-24T08:13:06;12.70;99.90
18444;DHT22;9350;53.176;8.194;2023-04-24T08:15:35;12.70;99.90
18444;DHT22;9350;53.176;8.194;2023-04-24T08:18:01;12.70;99.90
18444;DHT22;9350;53.176;8.194;2023-04-24T08:20:28;12.70;99.90
18444;DHT22;9350;53.176;8.194;2023-04-24T08:22:55;12.80;99.90
18444;DHT22;9350;53.176;8.194;2023-04-24T08:25:22;12.70;99.90
18444;DHT22;9350;53.176;8.194;2023-04-24T08:27:50;12.70;99.90
18444;DHT22;9350;53.176;8.194;2023-04-24T08:30:17;12.60;99.90
18444;DHT22;9350;53.176;8.194;2023-04-24T08:32:45;12.70;99.90
18444;DHT22;9350;53.176;8.194;2023-04-24T08:35:11;12.70;99.90
18444;DHT22;9350;53.176;8.194;2023-04-24T08:37:38;12.70;99.90
18444;DHT22;9350;53.176;8.194;2023-04-24T08:40:12;12.70;99.90
18444;DHT22;9350;53.176;8.194;2023-04-24T08:42:40;12.70;99.90
18444;DHT22;9350;53.176;8.194;2023-04-24T08:45:09;12.70;99.90
18444;DHT22;9350;53.176;8.194;2023-04-24T08:47:36;12.70;99.90
18444;DHT22;9350;53.176;8.194;2023-04-24T08:50:06;12.70;99.90
18444;DHT22;9350;53.176;8.194;2023-04-24T08:52:34;12.70;99.90
18444;DHT22;9350;53.176;8.194;2023-04-24T08:55:01;12.60;99.90
18444;DHT22;9350;53.176;8.194;2023-04-24T08:57:28;12.70;99.90
18444;DHT22;9350;53.176;8.194;2023-04-24T08:59:56;12.60;99.90
18444;DHT22;9350;53.176;8.194;2023-04-24T09:02:25;12.70;99.90
18444;DHT22;9350;53.176;8.194;2023-04-24T09:04:52;12.70;99.90
18444;DHT22;9350;53.176;8.194;2023-04-24T09:07:22;12.70;99.90
18444;DHT22;9350;53.176;8.194;2023-04-24T09:09:51;12.60;99.90
18444;DHT22;9350;53.176;8.194;2023-04-24T09:12:18;12.60;99.90
18444;DHT22;9350;53.176;8.194;2023-04-24T09:14:45;12.60;99.90
18444;DHT22;9350;53.176;8.194;2023-04-24T09:17:12;12.60;99.90
18444;DHT22;9350;53.176;8.194;2023-04-24T09:19:39;12.80;99.90
18444;DHT22;9350;53.176;8.194;2023-04-24T09:22:06;12.60;99.90
18444;DHT22;9350;53.176;8.194;2023-04-24T09:24:35;12.60;99.90
18444;DHT22;9350;53.176;8.194;2023-04-24T09:27:02;12.60;99.90
18444;DHT22;9350;53.176;8.194;2023-04-24T09:29:29;12.60;99.90
18444;DHT22;9350;53.176;8.194;2023-04-24T09:31:58;12.60;99.90
18444;DHT22;9350;53.176;8.194;2023-04-24T09:34:25;12.50;99.90
18444;DHT22;9350;53.176;8.194;2023-04-24T09:36:53;12.50;99.90
18444;DHT22;9350;53.176;8.194;2023-04-24T09:39:20;12.50;99.90
18444;DHT22;9350;53.176;8.194;2023-04-24T09:41:50;12.40;99.90
18444;DHT22;9350;53.176;8.194;2023-04-24T09:44:18;12.40;99.90
18444;DHT22;9350;53.176;8.194;2023-04-24T09:46:50;12.40;99.90
18444;DHT22;9350;53.176;8.194;2023-04-24T09:49:22;12.40;99.90
18444;DHT22;9350;53.176;8.194;2023-04-24T09:51:49;12.40;99.90
18444;DHT22;9350;53.176;8.194;2023-04-24T09:54:17;12.40;99.90
18444;DHT22;9350;53.176;8.194;2023-04-24T09:56:47;12.40;99.90
18444;DHT22;9350;53.176;8.194;2023-04-24T09:59:17;12.40;99.90
18444;DHT22;9350;53.176;8.194;2023-04-24T10:01:45;12.50;99.90
18444;DHT22;9350;53.176;8.194;2023-04-24T10:04:17;12.50;99.90
18444;DHT22;9350;53.176;8.194;2023-04-24T10:06:45;12.50;99.90
18444;DHT22;9350;53.176;8.194;2023-04-24T10:09:12;12.40;99.90
18444;DHT22;9350;53.176;8.194;2023-04-24T10:11:42;12.40;99.90
18444;DHT22;9350;53.176;8.194;2023-04-24T10:14:09;12.40;99.90
18444;DHT22;9350;53.176;8.194;2023-04-24T10:16:39;12.50;99.90
18444;DHT22;9350;53.176;8.194;2023-04-24T10:19:07;12.50;99.90
18444;DHT22;9350;53.176;8.194;2023-04-24T10:21:35;12.60;99.90
18444;DHT22;9350;53.176;8.194;2023-04-24T10:24:03;12.60;99.90
18444;DHT22;9350;53.176;8.194;2023-04-24T10:26:33;12.60;99.90
18444;DHT22;9350;53.176;8.194;2023-04-24T10:29:00;12.60;99.90
18444;DHT22;9350;53.176;8.194;2023-04-24T10:31:31;12.50;99.90
18444;DHT22;9350;53.176;8.194;2023-04-24T10:34:03;12.50;99.90
18444;DHT22;9350;53.176;8.194;2023-04-24T10:36:31;12.50;99.90
18444;DHT22;9350;53.176;8.194;2023-04-24T10:39:02;12.60;99.90
18444;DHT22;9350;53.176;8.194;2023-04-24T10:41:30;12.60;99.90
18444;DHT22;9350;53.176;8.194;2023-04-24T10:44:07;12.50;99.90
18444;DHT22;9350;53.176;8.194;2023-04-24T10:46:35;12.40;99.90
18444;DHT22;9350;53.176;8.194;2023-04-24T10:49:05;12.40;99.90
18444;DHT22;9350;53.176;8.194;2023-04-24T10:51:46;12.40;99.90
18444;DHT22;9350;53.176;8.194;2023-04-24T10:54:24;12.40;99.90
18444;DHT22;9350;53.176;8.194;2023-04-24T10:56:52;12.30;99.90
18444;DHT22;9350;53.176;8.194;2023-04-24T10:59:25;12.20;99.90
18444;DHT22;9350;53.176;8.194;2023-04-24T11:01:53;12.10;99.90
18444;DHT22;9350;53.176;8.194;2023-04-24T11:04:32;12.10;99.90
18444;DHT22;9350;53.176;8.194;2023-04-24T11:07:00;12.10;99.90
18444;DHT22;9350;53.176;8.194;2023-04-24T11:09:28;12.10;99.90
18444;DHT22;9350;53.176;8.194;2023-04-24T11:12:03;12.10;99.90
18444;DHT22;9350;53.176;8.194;2023-04-24T11:14:59;12.10;99.90
18444;DHT22;9350;53.176;8.194;2023-04-24T11:17:30;12.00;99.90
18444;DHT22;9350;53.176;8.194;2023-04-24T11:20:02;12.00;99.90
18444;DHT22;9350;53.176;8.194;2023-04-24T11:22:33;12.00;99.90
18444;DHT22;9350;53.176;8.194;2023-04-24T11:25:01;12.00;99.90
18444;DHT22;9350;53.176;8.194;2023-04-24T11:27:30;12.00;99.90
18444;DHT22;9350;53.176;8.194;2023-04-24T11:30:02;12.00;99.90
18444;DHT22;9350;53.176;8.194;2023-04-24T11:32:33;11.90;99.90
18444;DHT22;9350;53.176;8.194;2023-04-24T11:35:03;11.90;99.90
18444;DHT22;9350;53.176;8.194;2023-04-24T11:37:34;11.80;99.90
18444;DHT22;9350;53.176;8.194;2023-04-24T11:40:01;11.90;99.90
18444;DHT22;9350;53.176;8.194;2023-04-24T11:42:28;11.90;99.90
18444;DHT22;9350;53.176;8.194;2023-04-24T11:45:00;11.90;99.90
18444;DHT22;9350;53.176;8.194;2023-04-24T11:47:28;11.90;99.90
18444;DHT22;9350;53.176;8.194;2023-04-24T11:49:55;11.90;99.90
18444;DHT22;9350;53.176;8.194;2023-04-24T11:52:23;11.90;99.90
18444;DHT22;9350;53.176;8.194;2023-04-24T11:54:50;11.80;99.90
18444;DHT22;9350;53.176;8.194;2023-04-24T11:57:20;11.80;99.90
18444;DHT22;9350;53.176;8.194;2023-04-24T11:59:47;11.60;99.90
18444;DHT22;9350;53.176;8.194;2023-04-24T12:02:21;11.50;99.90
18444;DHT22;9350;53.176;8.194;2023-04-24T12:04:48;11.60;99.90
18444;DHT22;9350;53.176;8.194;2023-04-24T12:07:15;11.40;99.90
18444;DHT22;9350;53.176;8.194;2023-04-24T12:09:44;11.30;99.90
18444;DHT22;9350;53.176;8.194;2023-04-24T12:12:12;11.30;99.90
18444;DHT22;9350;53.176;8.194;2023-04-24T12:14:47;11.30;99.90
18444;DHT22;9350;53.176;8.194;2023-04-24T12:17:15;11.20;99.90
18444;DHT22;9350;53.176;8.194;2023-04-24T12:19:46;11.20;99.90
18444;DHT22;9350;53.176;8.194;2023-04-24T12:22:13;11.30;99.90
18444;DHT22;9350;53.176;8.194;2023-04-24T12:24:58;11.40;99.90
18444;DHT22;9350;53.176;8.194;2023-04-24T12:27:27;11.30;99.90
18444;DHT22;9350;53.176;8.194;2023-04-24T12:29:56;11.20;99.90
18444;DHT22;9350;53.176;8.194;2023-04-24T12:32:23;11.10;99.90
18444;DHT22;9350;53.176;8.194;2023-04-24T12:34:50;11.10;99.90
18444;DHT22;9350;53.176;8.194;2023-04-24T12:37:18;11.30;99.90
18444;DHT22;9350;53.176;8.194;2023-04-24T12:39:59;11.00;99.90
18444;DHT22;9350;53.176;8.194;2023-04-24T12:42:26;10.90;99.90
18444;DHT22;9350;53.176;8.194;2023-04-24T12:44:56;10.90;99.90
18444;DHT22;9350;53.176;8.194;2023-04-24T12:47:25;10.90;99.90
18444;DHT22;9350;53.176;8.194;2023-04-24T12:49:51;10.80;99.90
18444;DHT22;9350;53.176;8.194;2023-04-24T12:52:18;10.80;99.90
18444;DHT22;9350;53.176;8.194;2023-04-24T12:54:46;10.80;99.90
18444;DHT22;9350;53.176;8.194;2023-04-24T12:57:14;10.70;99.90
18444;DHT22;9350;53.176;8.194;2023-04-24T12:59:41;10.70;99.90
18444;DHT22;9350;53.176;8.194;2023-04-24T13:02:07;10.70;99.90
18444;DHT22;9350;53.176;8.194;2023-04-24T13:04:35;10.80;99.90
18444;DHT22;9350;53.176;8.194;2023-04-24T13:07:02;10.80;99.90
18444;DHT22;9350;53.176;8.194;2023-04-24T13:09:30;11.00;99.90
18444;DHT22;9350;53.176;8.194;2023-04-24T13:11:57;10.90;99.90
18444;DHT22;9350;53.176;8.194;2023-04-24T13:14:25;10.90;99.90
18444;DHT22;9350;53.176;8.194;2023-04-24T13:16:52;10.90;99.90
18444;DHT22;9350;53.176;8.194;2023-04-24T13:19:18;11.00;99.90
18444;DHT22;9350;53.176;8.194;2023-04-24T13:21:45;11.00;99.90
18444;DHT22;9350;53.176;8.194;2023-04-24T13:24:12;10.90;99.90
18444;DHT22;9350;53.176;8.194;2023-04-24T13:26:41;10.70;99.90
18444;DHT22;9350;53.176;8.194;2023-04-24T13:29:08;10.70;99.90
18444;DHT22;9350;53.176;8.194;2023-04-24T13:31:36;10.70;99.90
18444;DHT22;9350;53.176;8.194;2023-04-24T13:34:03;10.40;99.90
18444;DHT22;9350;53.176;8.194;2023-04-24T13:36:30;10.50;99.90
18444;DHT22;9350;53.176;8.194;2023-04-24T13:38:57;10.50;99.90
18444;DHT22;9350;53.176;8.194;2023-04-24T13:41:23;10.50;99.90
18444;DHT22;9350;53.176;8.194;2023-04-24T13:43:50;10.50;99.90
18444;DHT22;9350;53.176;8.194;2023-04-24T13:46:17;10.60;99.90
18444;DHT22;9350;53.176;8.194;2023-04-24T13:48:45;10.70;99.90
18444;DHT22;9350;53.176;8.194;2023-04-24T13:51:11;10.80;99.90
18444;DHT22;9350;53.176;8.194;2023-04-24T13:53:38;10.90;99.90
18444;DHT22;9350;53.176;8.194;2023-04-24T13:56:05;10.80;99.90
18444;DHT22;9350;53.176;8.194;2023-04-24T13:58:33;10.90;99.90
18444;DHT22;9350;53.176;8.194;2023-04-24T14:00:59;10.90;99.90
18444;DHT22;9350;53.176;8.194;2023-04-24T14:03:26;10.80;99.90
18444;DHT22;9350;53.176;8.194;2023-04-24T14:05:54;10.80;99.90
18444;DHT22;9350;53.176;8.194;2023-04-24T14:08:21;10.90;99.90
18444;DHT22;9350;53.176;8.194;2023-04-24T14:10:48;11.00;99.90
18444;DHT22;9350;53.176;8.194;2023-04-24T14:13:16;11.10;99.90
18444;DHT22;9350;53.176;8.194;2023-04-24T14:15:42;11.10;99.90
18444;DHT22;9350;53.176;8.194;2023-04-24T14:18:10;11.10;99.90
18444;DHT22;9350;53.176;8.194;2023-04-24T14:20:36;11.10;99.90
18444;DHT22;9350;53.176;8.194;2023-04-24T14:23:04;11.10;99.90
18444;DHT22;9350;53.176;8.194;2023-04-24T14:25:31;11.10;99.90
18444;DHT22;9350;53.176;8.194;2023-04-24T14:27:58;11.00;99.90
18444;DHT22;9350;53.176;8.194;2023-04-24T14:30:25;11.00;99.90
18444;DHT22;9350;53.176;8.194;2023-04-24T14:32:51;10.90;99.90
18444;DHT22;9350;53.176;8.194;2023-04-24T14:35:19;10.80;99.90
18444;DHT22;9350;53.176;8.194;2023-04-24T14:37:45;10.90;99.90
18444;DHT22;9350;53.176;8.194;2023-04-24T14:40:15;10.80;99.90
18444;DHT22;9350;53.176;8.194;2023-04-24T14:42:42;10.90;99.90
18444;DHT22;9350;53.176;8.194;2023-04-24T14:45:09;10.80;99.90
18444;DHT22;9350;53.176;8.194;2023-04-24T14:47:36;10.80;99.90
18444;DHT22;9350;53.176;8.194;2023-04-24T14:50:04;10.60;99.90
18444;DHT22;9350;53.176;8.194;2023-04-24T14:52:31;10.60;99.90
18444;DHT22;9350;53.176;8.194;2023-04-24T14:54:58;10.50;99.90
18444;DHT22;9350;53.176;8.194;2023-04-24T14:57:26;10.40;99.90
18444;DHT22;9350;53.176;8.194;2023-04-24T14:59:53;10.50;99.90
18444;DHT22;9350;53.176;8.194;2023-04-24T15:02:19;10.60;99.90
18444;DHT22;9350;53.176;8.194;2023-04-24T15:04:46;10.70;99.90
18444;DHT22;9350;53.176;8.194;2023-04-24T15:07:13;10.70;99.90
18444;DHT22;9350;53.176;8.194;2023-04-24T15:09:40;10.70;99.90
18444;DHT22;9350;53.176;8.194;2023-04-24T15:12:08;10.80;99.90
18444;DHT22;9350;53.176;8.194;2023-04-24T15:14:36;10.80;99.90
18444;DHT22;9350;53.176;8.194;2023-04-24T15:17:03;10.60;99.90
18444;DHT22;9350;53.176;8.194;2023-04-24T15:19:30;10.60;99.90
18444;DHT22;9350;53.176;8.194;2023-04-24T15:21:57;10.60;99.90
18444;DHT22;9350;53.176;8.194;2023-04-24T15:24:24;10.70;99.90
18444;DHT22;9350;53.176;8.194;2023-04-24T15:26:50;10.70;99.90
18444;DHT22;9350;53.176;8.194;2023-04-24T15:29:17;10.60;99.90
18444;DHT22;9350;53.176;8.194;2023-04-24T15:31:45;10.60;99.90
18444;DHT22;9350;53.176;8.194;2023-04-24T15:34:12;10.70;99.90
18444;DHT22;9350;53.176;8.194;2023-04-24T15:36:39;10.60;99.90
18444;DHT22;9350;53.176;8.194;2023-04-24T15:39:06;10.60;99.90
18444;DHT22;9350;53.176;8.194;2023-04-24T15:41:33;10.60;99.90
18444;DHT22;9350;53.176;8.194;2023-04-24T15:43:59;10.50;99.90
18444;DHT22;9350;53.176;8.194;2023-04-24T15:46:26;10.60;99.90
18444;DHT22;9350;53.176;8.194;2023-04-24T15:48:54;10.70;99.90